Maupin, Oregon
Current Conditions -  °F | °C
As of 1:12 AM on Tuesday 21 Oct 2014 (Local Time) from KDLS Reporting Station
Overcast Overcast  
Wind Chill: 51°   Ceiling: 7000
Heat Index: 51°   Visibility: 10mi
Dew Point: 49°   Wind: 5mph
Humidity: 92%   Direction: 140°SE
Pressure: 29.87"   Gusts: NA
Location:  45.18°N, 121.08°W
Report Text: KDLS 210812Z AUTO 14004KT 10SM SCT008 OVC070 11/09 A2987 RMK AO2 T01060094
Loading
Personal Weather Stations






























Interactive Weather Map
Tropical Storm Tracking
New forecast layout! Learn more

10-Day Weather Forecast

Advertisements
Track Severe Weather on mobile